createdAt,value
2022-07-26T00:01:41.228Z,96247.09
2022-07-26T00:07:01.827Z,96240.72
2022-07-26T00:12:22.570Z,96251.81
2022-07-26T00:17:43.243Z,96241.63
2022-07-26T00:23:03.945Z,96236.78
2022-07-26T00:28:24.676Z,96223.63
2022-07-26T00:33:45.272Z,96202.53
2022-07-26T00:39:06.348Z,96184.91
2022-07-26T00:44:40.603Z,96179.56
2022-07-26T00:50:01.724Z,96198.81
2022-07-26T00:55:22.837Z,96216.97
2022-07-26T01:00:43.741Z,96231.34
2022-07-26T01:06:05.563Z,96231.25
2022-07-26T01:11:26.224Z,96256.00
2022-07-26T01:16:47.443Z,96262.63
2022-07-26T01:22:13.885Z,96275.41
2022-07-26T01:27:39.424Z,96274.75
2022-07-26T01:33:00.719Z,96295.78
2022-07-26T01:38:27.556Z,96320.59
2022-07-26T01:43:48.132Z,96333.28
2022-07-26T01:49:09.435Z,96365.94
2022-07-26T01:54:30.495Z,96386.31
2022-07-26T01:59:51.052Z,96409.06
2022-07-26T02:05:12.657Z,96413.50
2022-07-26T02:10:52.749Z,96420.34
2022-07-26T02:16:15.140Z,96421.78
2022-07-26T02:21:35.854Z,96423.81
2022-07-26T02:26:57.638Z,96430.69
2022-07-26T02:32:18.843Z,96438.03
2022-07-26T02:37:43.830Z,96448.56
2022-07-26T02:43:07.409Z,96447.53
2022-07-26T02:48:28.159Z,96453.34
2022-07-26T02:53:48.711Z,96445.22
2022-07-26T02:59:09.320Z,96458.31
2022-07-26T03:04:30.455Z,96450.09
2022-07-26T03:09:51.056Z,96454.25
2022-07-26T03:15:12.233Z,96463.84
2022-07-26T03:20:32.949Z,96458.53
2022-07-26T03:25:53.814Z,96456.78
2022-07-26T03:31:14.756Z,96463.72
2022-07-26T03:36:35.362Z,96467.19
2022-07-26T03:41:55.957Z,96492.69
2022-07-26T03:47:16.798Z,96493.31
2022-07-26T03:52:37.469Z,96501.31
2022-07-26T03:57:58.453Z,96511.63
2022-07-26T04:03:19.237Z,96511.03
2022-07-26T04:08:40.106Z,96521.25
2022-07-26T04:14:01.249Z,96533.94
2022-07-26T04:19:21.963Z,96539.75
2022-07-26T04:24:42.575Z,96546.13
2022-07-26T04:30:04.768Z,96552.91
2022-07-26T04:35:26.072Z,96547.25
2022-07-26T04:40:47.138Z,96553.25
2022-07-26T04:46:09.457Z,96557.19
2022-07-26T04:51:30.022Z,96555.72
2022-07-26T04:56:50.808Z,96566.22
2022-07-26T05:02:11.644Z,96566.94
2022-07-26T05:07:47.720Z,96570.94
2022-07-26T05:13:08.710Z,96569.81
2022-07-26T05:18:31.963Z,96576.16
2022-07-26T05:24:07.983Z,96573.84
2022-07-26T05:29:28.829Z,96571.03
2022-07-26T05:34:49.865Z,96570.34
2022-07-26T05:40:11.857Z,96574.28
2022-07-26T05:45:32.620Z,96577.75
2022-07-26T05:50:53.195Z,96586.75
2022-07-26T05:56:13.843Z,96603.69
2022-07-26T06:01:35.076Z,96603.94
2022-07-26T06:06:56.829Z,96613.78
2022-07-26T06:12:17.710Z,96610.19
2022-07-26T06:17:41.308Z,96609.44
2022-07-26T06:23:02.010Z,96612.94
2022-07-26T06:28:22.684Z,96611.34
2022-07-26T06:33:43.244Z,96609.94
2022-07-26T06:39:04.941Z,96599.63
2022-07-26T06:44:26.492Z,96609.97
2022-07-26T06:49:47.247Z,96615.09
2022-07-26T06:55:09.177Z,96618.84
2022-07-26T07:00:33.224Z,96622.63
2022-07-26T07:05:53.783Z,96628.88
2022-07-26T07:11:14.394Z,96631.63
2022-07-26T07:16:38.606Z,96640.94
2022-07-26T07:21:59.701Z,96647.09
2022-07-26T07:27:20.982Z,96661.50
2022-07-26T07:32:41.489Z,96660.66
2022-07-26T07:38:02.079Z,96656.38
2022-07-26T07:43:22.580Z,96666.97
2022-07-26T07:48:47.397Z,96678.50
2022-07-26T07:54:09.395Z,96673.19
2022-07-26T07:59:30.299Z,96677.97
2022-07-26T08:04:51.022Z,96684.53
2022-07-26T08:10:11.683Z,96677.38
2022-07-26T08:15:32.541Z,96666.06
2022-07-26T08:20:53.771Z,96671.44
2022-07-26T08:26:14.381Z,96685.47
2022-07-26T08:31:35.120Z,96672.63
2022-07-26T08:37:16.077Z,96682.00
2022-07-26T08:42:36.905Z,96677.69
2022-07-26T08:53:40.125Z,96686.38
2022-07-26T08:59:18.585Z,96681.25
2022-07-26T09:04:45.156Z,96674.25
2022-07-26T09:10:09.458Z,96683.59
2022-07-26T09:15:30.388Z,96684.81
2022-07-26T09:20:51.272Z,96683.91
2022-07-26T09:26:11.829Z,96681.19
2022-07-26T09:31:33.106Z,96677.44
2022-07-26T09:36:55.275Z,96682.97
2022-07-26T09:42:28.489Z,96677.66
2022-07-26T09:47:49.842Z,96674.69
2022-07-26T09:53:13.246Z,96670.53
2022-07-26T09:58:34.025Z,96658.13
2022-07-26T10:03:55.250Z,96672.38
2022-07-26T10:09:17.190Z,96664.72
2022-07-26T10:14:45.874Z,96668.19
2022-07-26T10:20:16.901Z,96665.78
2022-07-26T10:25:49.114Z,96657.72
2022-07-26T10:31:25.970Z,96652.06
2022-07-26T10:36:57.825Z,96654.50
2022-07-26T10:42:19.771Z,96659.88
2022-07-26T10:48:15.603Z,96639.25
2022-07-26T10:53:36.584Z,96650.31
2022-07-26T10:58:57.555Z,96642.44
2022-07-26T11:04:24.690Z,96654.72
2022-07-26T11:09:45.420Z,96644.81
2022-07-26T11:15:19.263Z,96648.66
2022-07-26T11:20:41.145Z,96648.56
2022-07-26T11:26:04.603Z,96648.78
2022-07-26T11:31:49.412Z,96648.97
2022-07-26T11:37:16.200Z,96644.59
2022-07-26T11:42:37.288Z,96656.19
2022-07-26T11:47:59.017Z,96646.59
2022-07-26T11:53:23.263Z,96642.66
2022-07-26T11:58:46.322Z,96643.66
2022-07-26T12:04:19.492Z,96634.19
2022-07-26T12:09:50.443Z,96629.88
2022-07-26T12:15:12.592Z,96627.06
2022-07-26T12:20:33.569Z,96620.47
2022-07-26T12:25:54.208Z,96621.34
2022-07-26T12:31:32.939Z,96626.75
2022-07-26T12:36:54.010Z,96623.50
2022-07-26T12:42:33.062Z,96618.13
2022-07-26T12:47:57.136Z,96621.31
2022-07-26T12:53:17.997Z,96616.53
2022-07-26T12:58:38.666Z,96606.22
2022-07-26T13:04:00.135Z,96603.72
2022-07-26T13:09:20.862Z,96598.53
2022-07-26T13:14:42.258Z,96592.41
2022-07-26T13:20:02.891Z,96594.97
2022-07-26T13:25:23.745Z,96610.94
2022-07-26T13:30:45.898Z,96599.59
2022-07-26T13:36:06.661Z,96599.16
2022-07-26T13:41:27.530Z,96589.22
2022-07-26T13:46:51.739Z,96576.69
2022-07-26T13:52:16.674Z,96584.84
2022-07-26T13:57:48.030Z,96585.75
2022-07-26T14:03:17.463Z,96588.34
2022-07-26T14:08:38.618Z,96603.22
2022-07-26T14:13:59.356Z,96595.78
2022-07-26T14:19:20.097Z,96599.59
2022-07-26T14:24:40.916Z,96604.69
2022-07-26T14:30:02.480Z,96601.78
2022-07-26T14:35:23.054Z,96607.44
2022-07-26T14:40:43.710Z,96600.56
2022-07-26T14:46:04.866Z,96591.41
2022-07-26T14:51:25.678Z,96600.31
2022-07-26T14:56:48.213Z,96597.47
2022-07-26T15:02:11.876Z,96599.94
2022-07-26T15:07:32.697Z,96594.97
2022-07-26T15:12:53.703Z,96599.09
2022-07-26T15:18:14.420Z,96591.19
2022-07-26T15:23:35.110Z,96589.16
2022-07-26T15:28:56.052Z,96592.22
2022-07-26T15:34:16.796Z,96591.41
2022-07-26T15:39:37.474Z,96590.84
2022-07-26T15:44:58.550Z,96583.41
2022-07-26T15:50:19.193Z,96577.97
2022-07-26T15:55:40.782Z,96581.44
2022-07-26T16:01:01.625Z,96577.91
2022-07-26T16:06:22.365Z,96574.91
2022-07-26T16:11:43.029Z,96579.53
2022-07-26T16:17:03.991Z,96567.31
2022-07-26T16:22:25.052Z,96582.34
2022-07-26T16:27:46.080Z,96578.31
2022-07-26T16:33:06.894Z,96581.94
2022-07-26T16:38:27.436Z,96586.69
2022-07-26T16:43:48.101Z,96591.97
2022-07-26T16:49:09.216Z,96590.09
2022-07-26T16:54:31.143Z,96594.66
2022-07-26T16:59:51.683Z,96592.78
2022-07-26T17:05:12.448Z,96586.78
2022-07-26T17:10:33.116Z,96589.94
2022-07-26T17:15:54.257Z,96590.09
2022-07-26T17:21:15.127Z,96594.72
2022-07-26T17:26:36.465Z,96604.44
2022-07-26T17:31:58.171Z,96600.63
2022-07-26T17:37:18.772Z,96601.81
2022-07-26T17:42:42.678Z,96602.06
2022-07-26T17:48:06.397Z,96603.25
2022-07-26T17:53:34.151Z,96609.53
2022-07-26T17:58:55.906Z,96611.28
2022-07-26T18:04:18.007Z,96615.69
2022-07-26T18:09:38.672Z,96610.69
2022-07-26T18:14:59.410Z,96618.34
2022-07-26T18:20:20.127Z,96628.31
2022-07-26T18:25:45.304Z,96621.03
2022-07-26T18:31:06.180Z,96625.22
2022-07-26T18:36:31.712Z,96625.03
2022-07-26T18:41:52.340Z,96640.16
2022-07-26T18:47:13.026Z,96641.00
2022-07-26T18:52:33.893Z,96646.41
2022-07-26T18:57:55.008Z,96648.94
2022-07-26T19:03:16.696Z,96656.94
2022-07-26T19:08:37.364Z,96668.28
2022-07-26T19:13:58.033Z,96670.00
2022-07-26T19:19:20.248Z,96681.88
2022-07-26T19:24:40.922Z,96691.91
2022-07-26T19:30:01.778Z,96697.16
2022-07-26T19:35:23.007Z,96698.91
2022-07-26T19:40:44.678Z,96705.13
2022-07-26T19:46:05.830Z,96708.00
2022-07-26T19:51:26.727Z,96716.06
2022-07-26T19:56:47.725Z,96716.94
2022-07-26T20:02:08.329Z,96715.75
2022-07-26T20:07:29.406Z,96727.28
2022-07-26T20:12:50.114Z,96730.53
2022-07-26T20:18:10.926Z,96731.84
2022-07-26T20:23:33.133Z,96744.59
2022-07-26T20:28:55.332Z,96747.09
2022-07-26T20:34:16.156Z,96751.81
2022-07-26T20:39:36.864Z,96757.94
2022-07-26T20:44:57.592Z,96761.44
2022-07-26T20:50:19.171Z,96770.63
2022-07-26T20:55:40.875Z,96772.72
2022-07-26T21:01:01.666Z,96786.69
2022-07-26T21:06:22.280Z,96786.69
2022-07-26T21:11:45.508Z,96783.06
2022-07-26T21:17:11.297Z,96787.13
2022-07-26T21:22:33.308Z,96789.41
2022-07-26T21:27:54.006Z,96795.78
2022-07-26T21:33:14.970Z,96793.97
2022-07-26T21:38:35.691Z,96800.16
2022-07-26T21:43:56.195Z,96800.81
2022-07-26T21:49:18.433Z,96811.69
2022-07-26T21:54:39.161Z,96818.03
2022-07-26T21:59:59.954Z,96817.00
2022-07-26T22:05:35.750Z,96816.44
2022-07-26T22:10:56.617Z,96812.78
2022-07-26T22:16:17.535Z,96814.28
2022-07-26T22:21:38.570Z,96805.94
2022-07-26T22:26:59.495Z,96807.41
2022-07-26T22:32:20.397Z,96809.66
2022-07-26T22:37:41.510Z,96815.22
2022-07-26T22:43:02.967Z,96811.97
2022-07-26T22:48:23.900Z,96810.94
2022-07-26T22:53:44.789Z,96809.91
2022-07-26T22:59:05.456Z,96815.81
2022-07-26T23:04:26.007Z,96823.59
2022-07-26T23:09:48.656Z,96824.19
2022-07-26T23:15:10.431Z,96810.53
2022-07-26T23:20:31.105Z,96817.88
2022-07-26T23:25:51.839Z,96821.13
2022-07-26T23:31:14.705Z,96815.22
2022-07-26T23:36:35.407Z,96797.88
2022-07-26T23:41:56.335Z,96802.78
2022-07-26T23:47:17.245Z,96800.56
2022-07-26T23:52:38.291Z,96802.59
2022-07-26T23:57:58.968Z,96803.00
